Главная страница
METAR-TAF:

METAR-TAF

Аэропорты :

Брянск, Россия

широта: 53-15N, долгота: 034-19E, высота над уровнем моря: 217 м

Текущие метеонаблюдения

Эта сводка был подготовлена 20 минут назад, в 07:00 UTC
Ветер 14 Узел от южный
Температура 21°C
Влажность 26%
Давление 1013 hPa
Видимость 10 км и более
Нет облачности ниже 1500 м, и нет кучево-дождевой облачности

METAR: UUBP 290700Z 17007MPS CAVOK 21/01 Q1013 R16/////// NOSIG RMK QFE742/0989

Время: 10:20 (07:20 UTC)

Прогноз

Эта сводка был подготовлена 2 часа и 29 минут назад, в 04:51 UTC
Прогноз действительный с 29-го 06 UTC до 29-го 15 UTC
Ветер 6 Узел от юго-восточный с порывами до 16 Узел
Видимость 10 км и более
Отдельные облака на высоте 3000 фута
Отдельные облака на высоте 7000 фута

TAF: UUBP 290451Z 2906/2915 14003G08MPS 9999 SCT030 SCT070

Метеонаблюдения и прогнозы для более 4000 аэропортов (сводки METAR и TAF).

Имеющиеся станции представлены на карте желтыми и красными точками.

Чтобы увидеть название станции, наведите на нее мышь.

Затем щелкните, чтобы увидеть метеонаблюдения и метеопрогнозы.

Управление картой: чтобы увеличить масштаб, щелкните зеленые кнопки с черным крестиком; чтобы уменьшить масштаб, щелкните зеленую кнопку с тире; для просмотра соседних карт щелкайте зеленые стрелки.


METAR-TAF: